createdAt,value
2023-05-23T00:01:18.539Z,76.80
2023-05-23T00:03:49.531Z,75.30
2023-05-23T00:06:22.130Z,75.70
2023-05-23T00:08:50.771Z,76.00
2023-05-23T00:11:20.296Z,73.20
2023-05-23T00:13:48.633Z,75.80
2023-05-23T00:16:17.272Z,75.80
2023-05-23T00:18:45.814Z,76.90
2023-05-23T00:21:16.056Z,76.10
2023-05-23T00:23:44.020Z,76.40
2023-05-23T00:26:12.015Z,76.10
2023-05-23T00:28:40.193Z,76.00
2023-05-23T00:31:08.035Z,76.50
2023-05-23T00:33:36.281Z,76.50
2023-05-23T00:36:04.226Z,76.60
2023-05-23T00:38:33.478Z,76.50
2023-05-23T00:41:01.668Z,76.70
2023-05-23T00:43:29.543Z,76.80
2023-05-23T00:45:57.678Z,76.80
2023-05-23T00:48:26.480Z,76.90
2023-05-23T00:50:54.857Z,77.00
2023-05-23T00:53:23.462Z,76.70
2023-05-23T00:55:52.717Z,77.00
2023-05-23T00:58:20.651Z,77.20
2023-05-23T01:00:50.522Z,77.10
2023-05-23T01:03:19.062Z,77.20
2023-05-23T01:05:48.336Z,77.30
2023-05-23T01:08:16.981Z,77.50
2023-05-23T01:10:44.821Z,77.60
2023-05-23T01:13:22.868Z,77.60
2023-05-23T01:16:02.560Z,78.40
2023-05-23T01:18:38.192Z,78.30
2023-05-23T01:21:10.734Z,78.50
2023-05-23T01:24:02.494Z,78.70
2023-05-23T01:26:42.281Z,79.70
2023-05-23T01:29:15.866Z,79.80
2023-05-23T01:31:45.867Z,79.50
2023-05-23T01:34:14.846Z,79.60
2023-05-23T01:36:44.645Z,79.40
2023-05-23T01:39:12.981Z,79.50
2023-05-23T01:41:40.966Z,78.90
2023-05-23T01:44:09.650Z,79.30
2023-05-23T01:46:40.605Z,79.60
2023-05-23T01:49:10.782Z,79.90
2023-05-23T01:51:39.297Z,79.70
2023-05-23T01:54:07.705Z,79.80
2023-05-23T01:56:36.282Z,79.30
2023-05-23T01:59:04.296Z,79.60
2023-05-23T02:01:32.537Z,79.90
2023-05-23T02:04:01.850Z,79.80
2023-05-23T02:06:29.982Z,80.10
2023-05-23T02:08:57.849Z,79.90
2023-05-23T02:11:26.856Z,79.80
2023-05-23T02:13:54.709Z,79.90
2023-05-23T02:16:23.258Z,79.90
2023-05-23T02:18:52.642Z,79.60
2023-05-23T02:21:21.882Z,80.10
2023-05-23T02:23:50.209Z,80.30
2023-05-23T02:26:19.102Z,80.00
2023-05-23T02:28:47.563Z,80.00
2023-05-23T02:31:17.240Z,80.20
2023-05-23T02:33:45.220Z,80.20
2023-05-23T02:36:13.348Z,80.30
2023-05-23T02:38:42.789Z,80.30
2023-05-23T02:41:10.704Z,80.40
2023-05-23T02:43:39.286Z,80.30
2023-05-23T02:46:07.213Z,80.50
2023-05-23T02:48:35.105Z,80.40
2023-05-23T02:51:03.104Z,80.40
2023-05-23T02:53:30.965Z,80.60
2023-05-23T02:56:00.190Z,80.60
2023-05-23T02:58:28.003Z,80.50
2023-05-23T03:00:55.876Z,80.50
2023-05-23T03:03:23.836Z,80.50
2023-05-23T03:05:52.092Z,80.50
2023-05-23T03:08:19.914Z,80.60
2023-05-23T03:10:47.946Z,80.40
2023-05-23T03:13:17.147Z,81.30
2023-05-23T03:15:45.116Z,81.60
2023-05-23T03:18:13.471Z,81.40
2023-05-23T03:20:41.908Z,81.00
2023-05-23T03:23:09.780Z,81.10
2023-05-23T03:25:37.649Z,80.80
2023-05-23T03:28:05.587Z,80.60
2023-05-23T03:30:34.975Z,80.50
2023-05-23T03:33:02.934Z,80.70
2023-05-23T03:35:30.909Z,80.50
2023-05-23T03:37:58.762Z,80.40
2023-05-23T03:40:26.557Z,80.10
2023-05-23T03:43:04.076Z,80.10
2023-05-23T03:45:32.018Z,80.40
2023-05-23T03:48:01.525Z,80.90
2023-05-23T03:50:29.399Z,80.10
2023-05-23T03:52:57.221Z,80.00
2023-05-23T03:55:25.711Z,80.00
2023-05-23T03:57:53.667Z,80.10
2023-05-23T04:00:21.832Z,79.90
2023-05-23T04:02:51.978Z,80.00
2023-05-23T04:05:21.551Z,79.80
2023-05-23T04:07:51.470Z,80.00
2023-05-23T04:10:19.472Z,80.00
2023-05-23T04:12:47.883Z,80.10
2023-05-23T04:15:17.964Z,80.00
2023-05-23T04:17:46.016Z,80.00
2023-05-23T04:20:14.361Z,80.20
2023-05-23T04:22:43.661Z,80.30
2023-05-23T04:25:11.677Z,80.40
2023-05-23T04:27:40.767Z,80.30
2023-05-23T04:30:09.953Z,80.60
2023-05-23T04:32:38.186Z,80.50
2023-05-23T04:35:06.614Z,80.30
2023-05-23T04:37:35.177Z,80.50
2023-05-23T04:40:05.119Z,80.10
2023-05-23T04:42:33.528Z,80.40
2023-05-23T04:45:02.146Z,78.80
2023-05-23T04:47:36.944Z,80.20
2023-05-23T04:50:06.110Z,80.00
2023-05-23T04:52:34.380Z,80.10
2023-05-23T04:55:04.217Z,79.90
2023-05-23T04:57:32.308Z,79.80
2023-05-23T05:00:01.133Z,79.70
2023-05-23T05:02:33.654Z,79.80
2023-05-23T05:05:01.621Z,79.70
2023-05-23T05:07:30.220Z,79.60
2023-05-23T05:09:59.979Z,79.50
2023-05-23T05:12:30.265Z,79.50
2023-05-23T05:14:58.111Z,79.40
2023-05-23T05:17:25.999Z,79.20
2023-05-23T05:19:53.849Z,79.40
2023-05-23T05:22:21.683Z,79.10
2023-05-23T05:24:49.807Z,78.90
2023-05-23T05:27:17.696Z,78.20
2023-05-23T05:29:48.466Z,78.50
2023-05-23T05:32:16.314Z,78.40
2023-05-23T05:34:45.916Z,78.10
2023-05-23T05:37:15.340Z,77.60
2023-05-23T05:39:43.308Z,77.60
2023-05-23T05:42:11.496Z,77.20
2023-05-23T05:44:39.323Z,76.90
2023-05-23T05:47:08.889Z,76.70
2023-05-23T05:49:36.829Z,76.20
2023-05-23T05:52:05.120Z,76.00
2023-05-23T05:54:32.924Z,75.90
2023-05-23T05:57:00.863Z,75.90
2023-05-23T05:59:30.477Z,75.90
2023-05-23T06:01:59.761Z,75.80
2023-05-23T06:04:28.988Z,75.80
2023-05-23T06:06:56.844Z,75.50
2023-05-23T06:09:24.745Z,75.40
2023-05-23T06:11:52.560Z,75.30
2023-05-23T06:14:20.463Z,75.40
2023-05-23T06:16:48.850Z,75.30
2023-05-23T06:19:17.404Z,75.10
2023-05-23T06:21:46.602Z,74.70
2023-05-23T06:24:14.494Z,74.70
2023-05-23T06:26:42.952Z,74.60
2023-05-23T06:29:10.792Z,74.40
2023-05-23T06:31:38.962Z,74.10
2023-05-23T06:34:06.883Z,73.90
2023-05-23T06:36:34.747Z,74.10
2023-05-23T06:39:04.016Z,74.30
2023-05-23T06:41:31.858Z,74.80
2023-05-23T06:43:59.909Z,74.20
2023-05-23T06:46:27.857Z,74.10
2023-05-23T06:49:06.492Z,74.30
2023-05-23T06:51:41.458Z,74.30
2023-05-23T06:54:11.581Z,74.40
2023-05-23T06:56:39.483Z,74.60
2023-05-23T06:59:07.385Z,74.80
2023-05-23T07:01:35.538Z,74.80
2023-05-23T07:04:03.429Z,75.00
2023-05-23T07:06:31.363Z,75.30
2023-05-23T07:08:59.254Z,75.50
2023-05-23T07:11:28.506Z,75.90
2023-05-23T07:13:56.323Z,76.10
2023-05-23T07:16:24.209Z,76.30
2023-05-23T07:18:52.289Z,76.50
2023-05-23T07:21:20.516Z,76.80
2023-05-23T07:23:48.872Z,76.80
2023-05-23T07:26:16.779Z,77.30
2023-05-23T07:28:46.575Z,77.30
2023-05-23T07:31:14.603Z,79.60
2023-05-23T07:33:42.699Z,77.20
2023-05-23T07:36:11.889Z,76.50
2023-05-23T07:38:39.880Z,76.20
2023-05-23T07:41:11.962Z,76.00
2023-05-23T07:43:40.591Z,75.00
2023-05-23T07:46:10.017Z,74.40
2023-05-23T07:48:38.252Z,74.30
2023-05-23T07:51:06.117Z,73.80
2023-05-23T07:53:34.902Z,72.60
2023-05-23T07:56:02.729Z,71.70
2023-05-23T07:58:30.594Z,71.50
2023-05-23T08:00:59.544Z,71.30
2023-05-23T08:03:28.863Z,71.00
2023-05-23T08:05:56.713Z,71.10
2023-05-23T08:08:24.617Z,71.10
2023-05-23T08:10:52.497Z,71.00
2023-05-23T08:13:20.406Z,70.80
2023-05-23T08:15:48.886Z,70.30
2023-05-23T08:18:18.171Z,70.00
2023-05-23T08:20:47.845Z,69.20
2023-05-23T08:23:16.186Z,69.00
2023-05-23T08:25:44.344Z,69.20
2023-05-23T08:28:12.458Z,69.10
2023-05-23T08:30:40.728Z,68.60
2023-05-23T08:33:09.071Z,68.40
2023-05-23T08:35:37.433Z,68.80
2023-05-23T08:38:09.037Z,68.40
2023-05-23T08:40:38.020Z,68.20
2023-05-23T08:43:06.184Z,68.10
2023-05-23T08:45:34.640Z,68.00
2023-05-23T08:48:03.783Z,68.00
2023-05-23T08:50:32.046Z,68.40
2023-05-23T08:53:01.212Z,67.70
2023-05-23T08:55:31.507Z,67.00
2023-05-23T08:58:00.709Z,66.70
2023-05-23T09:00:29.241Z,66.50
2023-05-23T09:02:58.266Z,67.20
2023-05-23T09:05:27.909Z,67.30
2023-05-23T09:07:56.716Z,67.10
2023-05-23T09:10:24.891Z,67.00
2023-05-23T09:12:54.198Z,65.90
2023-05-23T09:15:27.769Z,65.80
2023-05-23T09:18:01.671Z,65.20
2023-05-23T09:20:30.704Z,64.60
2023-05-23T09:22:58.618Z,64.30
2023-05-23T09:25:26.775Z,65.10
2023-05-23T09:27:59.998Z,64.70
2023-05-23T09:30:27.971Z,63.70
2023-05-23T09:33:05.603Z,64.60
2023-05-23T09:35:33.951Z,64.40
2023-05-23T09:38:01.823Z,64.40
2023-05-23T09:40:33.582Z,63.90
2023-05-23T09:43:05.501Z,63.50
2023-05-23T09:45:34.562Z,63.30
2023-05-23T09:48:02.707Z,63.40
2023-05-23T09:50:34.141Z,63.50
2023-05-23T09:53:02.371Z,62.60
2023-05-23T09:55:30.316Z,62.20
2023-05-23T09:58:00.089Z,61.80
2023-05-23T10:00:29.665Z,60.90
2023-05-23T10:03:10.692Z,60.20
2023-05-23T10:05:45.190Z,60.80
2023-05-23T10:08:17.436Z,60.30
2023-05-23T10:11:23.975Z,61.00
2023-05-23T10:13:53.193Z,59.50
2023-05-23T10:16:28.260Z,59.40
2023-05-23T10:18:59.088Z,58.20
2023-05-23T10:21:34.234Z,57.70
2023-05-23T10:24:04.749Z,57.60
2023-05-23T10:26:32.962Z,58.60
2023-05-23T10:29:02.317Z,58.50
2023-05-23T10:31:32.294Z,58.50
2023-05-23T10:34:08.902Z,58.50
2023-05-23T10:36:44.557Z,58.70
2023-05-23T10:39:23.494Z,58.80
2023-05-23T10:41:56.733Z,58.30
2023-05-23T10:44:29.674Z,57.40
2023-05-23T10:47:02.217Z,57.90
2023-05-23T10:49:52.635Z,57.80
2023-05-23T10:52:21.208Z,57.70
2023-05-23T10:54:53.139Z,57.20
2023-05-23T10:57:22.403Z,56.80
2023-05-23T10:59:52.316Z,56.90
2023-05-23T11:02:27.597Z,57.00
2023-05-23T11:05:20.648Z,57.10
2023-05-23T11:08:07.073Z,56.20
2023-05-23T11:10:52.267Z,56.50
2023-05-23T11:13:21.457Z,57.40
2023-05-23T11:15:50.764Z,57.20
2023-05-23T11:18:24.730Z,57.60
2023-05-23T11:20:54.729Z,57.00
2023-05-23T11:23:23.176Z,57.10
2023-05-23T11:25:53.746Z,56.80
2023-05-23T11:28:22.084Z,55.50
2023-05-23T11:30:51.133Z,54.80
2023-05-23T11:33:20.837Z,54.50
2023-05-23T11:35:52.172Z,54.90
2023-05-23T11:38:20.664Z,54.80
2023-05-23T11:40:49.643Z,54.60
2023-05-23T11:43:19.748Z,54.70
2023-05-23T11:45:48.665Z,55.10
2023-05-23T11:48:18.098Z,53.80
2023-05-23T11:50:49.855Z,53.80
2023-05-23T11:53:21.817Z,53.60
2023-05-23T11:55:53.038Z,53.90
2023-05-23T11:58:21.982Z,52.60
2023-05-23T12:00:51.398Z,52.70
2023-05-23T12:03:21.165Z,52.60
2023-05-23T12:05:51.621Z,52.60
2023-05-23T12:08:19.504Z,52.20
2023-05-23T12:10:52.488Z,51.80
2023-05-23T12:13:20.640Z,51.10
2023-05-23T12:15:50.840Z,51.20
2023-05-23T12:18:20.992Z,50.20
2023-05-23T12:20:52.624Z,50.10
2023-05-23T12:23:21.351Z,50.50
2023-05-23T12:25:52.829Z,50.90
2023-05-23T12:28:20.833Z,51.40
2023-05-23T12:30:49.844Z,51.80
2023-05-23T12:33:20.761Z,51.00
2023-05-23T12:35:49.100Z,50.70
2023-05-23T12:38:18.588Z,51.20
2023-05-23T12:40:46.643Z,50.20
2023-05-23T12:43:16.827Z,51.00
2023-05-23T12:45:44.742Z,51.20
2023-05-23T12:48:12.887Z,50.30
2023-05-23T12:50:40.839Z,49.80
2023-05-23T12:53:08.736Z,48.80
2023-05-23T12:55:37.958Z,48.70
2023-05-23T12:58:05.883Z,48.20
2023-05-23T13:00:33.790Z,48.60
2023-05-23T13:03:01.766Z,48.90
2023-05-23T13:05:29.622Z,49.70
2023-05-23T13:07:59.483Z,49.90
2023-05-23T13:10:28.545Z,49.70
2023-05-23T13:12:59.470Z,50.00
2023-05-23T13:15:27.359Z,49.20
2023-05-23T13:17:55.292Z,49.50
2023-05-23T13:20:23.199Z,48.70
2023-05-23T13:22:51.344Z,48.40
2023-05-23T13:25:19.225Z,48.50
2023-05-23T13:27:49.406Z,48.90
2023-05-23T13:30:18.924Z,48.90
2023-05-23T13:32:48.181Z,48.90
2023-05-23T13:35:17.766Z,49.60
2023-05-23T13:37:45.673Z,49.90
2023-05-23T13:40:17.670Z,50.00
2023-05-23T13:42:45.832Z,50.30
2023-05-23T13:45:13.754Z,50.30
2023-05-23T13:47:42.977Z,50.90
2023-05-23T13:50:11.623Z,50.60
2023-05-23T13:52:43.496Z,51.10
2023-05-23T13:55:13.314Z,49.10
2023-05-23T13:57:41.209Z,48.00
2023-05-23T14:00:10.458Z,48.70
2023-05-23T14:02:38.359Z,48.50
2023-05-23T14:05:08.734Z,47.30
2023-05-23T14:07:37.135Z,47.70
2023-05-23T14:10:07.121Z,47.10
2023-05-23T14:12:34.969Z,46.70
2023-05-23T14:15:02.990Z,46.90
2023-05-23T14:17:30.932Z,47.50
2023-05-23T14:19:59.263Z,46.80
2023-05-23T14:22:28.565Z,46.40
2023-05-23T14:24:56.400Z,45.90
2023-05-23T14:27:24.310Z,46.40
2023-05-23T14:29:52.188Z,46.20
2023-05-23T14:32:20.102Z,45.90
2023-05-23T14:34:48.903Z,45.60
2023-05-23T14:37:16.866Z,45.90
2023-05-23T14:39:46.539Z,46.00
2023-05-23T14:42:14.391Z,46.00
2023-05-23T14:44:42.515Z,46.10
2023-05-23T14:47:10.629Z,46.90
2023-05-23T14:49:38.573Z,47.30
2023-05-23T14:52:06.610Z,46.80
2023-05-23T14:54:34.482Z,46.60
2023-05-23T14:57:04.527Z,47.40
2023-05-23T14:59:32.526Z,46.90
2023-05-23T15:02:00.466Z,46.70
2023-05-23T15:04:28.400Z,46.30
2023-05-23T15:06:56.298Z,46.10
2023-05-23T15:09:24.131Z,45.60
2023-05-23T15:11:52.237Z,45.40
2023-05-23T15:14:22.042Z,45.50
2023-05-23T15:16:51.263Z,46.00
2023-05-23T15:19:19.211Z,45.50
2023-05-23T15:21:51.030Z,45.90
2023-05-23T15:24:19.368Z,45.10
2023-05-23T15:26:48.859Z,45.50
2023-05-23T15:29:18.077Z,45.10
2023-05-23T15:31:47.776Z,45.20
2023-05-23T15:34:15.713Z,44.10
2023-05-23T15:36:43.652Z,45.80
2023-05-23T15:39:12.441Z,45.90
2023-05-23T15:41:40.943Z,43.80
2023-05-23T15:44:08.950Z,44.10
2023-05-23T15:46:37.092Z,43.40
2023-05-23T15:49:21.231Z,43.90
2023-05-23T15:51:53.217Z,43.40
2023-05-23T15:54:21.390Z,43.20
2023-05-23T15:56:49.670Z,42.80
2023-05-23T15:59:18.109Z,41.80
2023-05-23T16:01:46.084Z,40.90
2023-05-23T16:04:15.640Z,41.30
2023-05-23T16:06:43.578Z,41.00
2023-05-23T16:09:11.705Z,41.40
2023-05-23T16:11:39.556Z,41.30
2023-05-23T16:14:07.651Z,41.00
2023-05-23T16:16:35.868Z,40.50
2023-05-23T16:19:04.963Z,41.00
2023-05-23T16:21:34.208Z,41.10
2023-05-23T16:24:02.107Z,41.10
2023-05-23T16:26:29.963Z,39.70
2023-05-23T16:28:57.766Z,39.80
2023-05-23T16:31:27.718Z,39.80
2023-05-23T16:33:56.227Z,39.00
2023-05-23T16:36:24.099Z,38.30
2023-05-23T16:38:55.424Z,38.80
2023-05-23T16:41:23.704Z,38.50
2023-05-23T16:43:51.722Z,38.60
2023-05-23T16:46:22.204Z,38.90
2023-05-23T16:48:50.786Z,37.90
2023-05-23T16:51:18.857Z,39.10
2023-05-23T16:53:46.921Z,38.90
2023-05-23T16:56:16.534Z,37.80
2023-05-23T16:58:44.568Z,37.70
2023-05-23T17:01:13.794Z,38.20
2023-05-23T17:03:42.051Z,38.20
2023-05-23T17:06:10.186Z,38.50
2023-05-23T17:08:38.323Z,38.70
2023-05-23T17:11:06.568Z,38.70
2023-05-23T17:13:35.825Z,39.10
2023-05-23T17:16:05.006Z,39.20
2023-05-23T17:18:32.920Z,39.20
2023-05-23T17:21:00.841Z,39.00
2023-05-23T17:23:28.803Z,39.70
2023-05-23T17:25:56.661Z,40.40
2023-05-23T17:28:24.512Z,41.20
2023-05-23T17:30:54.044Z,42.30
2023-05-23T17:33:21.930Z,42.00
2023-05-23T17:35:50.222Z,42.20
2023-05-23T17:38:18.074Z,42.20
2023-05-23T17:40:46.279Z,42.20
2023-05-23T17:43:14.641Z,42.40
2023-05-23T17:45:42.488Z,42.60
2023-05-23T17:48:11.845Z,42.80
2023-05-23T17:50:39.952Z,43.10
2023-05-23T17:53:08.069Z,43.30
2023-05-23T17:55:35.972Z,43.70
2023-05-23T17:58:03.855Z,44.00
2023-05-23T18:00:31.680Z,44.10
2023-05-23T18:02:59.657Z,44.30
2023-05-23T18:05:28.918Z,44.50
2023-05-23T18:07:56.767Z,44.80
2023-05-23T18:10:25.446Z,45.10
2023-05-23T18:12:53.287Z,45.30
2023-05-23T18:15:21.087Z,45.50
2023-05-23T18:17:51.570Z,45.70
2023-05-23T18:20:19.566Z,45.90
2023-05-23T18:22:53.555Z,46.00
2023-05-23T18:25:27.202Z,46.20
2023-05-23T18:27:56.001Z,46.00
2023-05-23T18:30:23.880Z,45.70
2023-05-23T18:32:52.006Z,45.80
2023-05-23T18:35:20.310Z,45.90
2023-05-23T18:37:50.232Z,46.20
2023-05-23T18:40:18.228Z,46.10
2023-05-23T18:42:47.531Z,46.40
2023-05-23T18:45:16.228Z,46.60
2023-05-23T18:47:44.895Z,46.80
2023-05-23T18:50:14.340Z,46.80
2023-05-23T18:52:43.196Z,46.00
2023-05-23T18:55:12.995Z,47.20
2023-05-23T18:57:40.958Z,47.40
2023-05-23T19:00:10.005Z,47.40
2023-05-23T19:02:39.544Z,47.60
2023-05-23T19:05:08.274Z,47.70
2023-05-23T19:07:36.121Z,48.00
2023-05-23T19:10:04.070Z,48.20
2023-05-23T19:12:33.191Z,48.50
2023-05-23T19:15:01.136Z,48.80
2023-05-23T19:17:29.111Z,49.00
2023-05-23T19:19:57.044Z,49.20
2023-05-23T19:22:25.629Z,49.40
2023-05-23T19:24:54.411Z,49.60
2023-05-23T19:27:22.353Z,49.80
2023-05-23T19:29:51.636Z,49.90
2023-05-23T19:32:19.549Z,50.20
2023-05-23T19:34:47.696Z,50.10
2023-05-23T19:37:16.061Z,50.10
2023-05-23T19:39:45.971Z,50.00
2023-05-23T19:42:13.926Z,50.10
2023-05-23T19:44:41.829Z,50.00
2023-05-23T19:47:11.539Z,49.80
2023-05-23T19:49:39.372Z,50.00
2023-05-23T19:52:07.471Z,50.00
2023-05-23T19:54:35.367Z,50.20
2023-05-23T19:57:04.692Z,50.10
2023-05-23T19:59:32.694Z,50.20
2023-05-23T20:02:01.673Z,50.20
2023-05-23T20:04:31.454Z,50.40
2023-05-23T20:07:00.268Z,50.50
2023-05-23T20:09:28.217Z,50.50
2023-05-23T20:11:56.079Z,50.50
2023-05-23T20:14:23.905Z,50.70
2023-05-23T20:16:53.818Z,50.90
2023-05-23T20:19:22.159Z,50.90
2023-05-23T20:21:51.905Z,51.00
2023-05-23T20:24:20.139Z,51.20
2023-05-23T20:26:48.649Z,51.20
2023-05-23T20:29:17.256Z,51.40
2023-05-23T20:31:45.368Z,51.30
2023-05-23T20:34:13.368Z,51.80
2023-05-23T20:36:41.303Z,51.70
2023-05-23T20:39:10.757Z,52.20
2023-05-23T20:41:42.113Z,52.20
2023-05-23T20:44:12.359Z,52.30
2023-05-23T20:46:40.453Z,52.60
2023-05-23T20:49:08.356Z,52.70
2023-05-23T20:51:37.108Z,52.70
2023-05-23T20:54:05.330Z,52.90
2023-05-23T20:56:34.598Z,53.20
2023-05-23T20:59:02.511Z,53.40
2023-05-23T21:01:31.153Z,53.50
2023-05-23T21:03:59.053Z,53.50
2023-05-23T21:06:26.952Z,53.70
2023-05-23T21:08:54.806Z,53.80
2023-05-23T21:11:23.274Z,53.90
2023-05-23T21:13:52.536Z,53.90
2023-05-23T21:16:20.759Z,54.10
2023-05-23T21:18:48.992Z,54.20
2023-05-23T21:21:17.572Z,54.30
2023-05-23T21:23:45.425Z,54.30
2023-05-23T21:26:13.396Z,54.50
2023-05-23T21:28:41.533Z,54.50
2023-05-23T21:31:12.717Z,54.90
2023-05-23T21:33:40.751Z,55.40
2023-05-23T21:36:08.750Z,55.50
2023-05-23T21:38:37.603Z,55.50
2023-05-23T21:41:05.701Z,55.60
2023-05-23T21:43:33.731Z,55.60
2023-05-23T21:46:01.729Z,55.50
2023-05-23T21:48:30.954Z,57.30
2023-05-23T21:50:58.779Z,55.90
2023-05-23T21:53:26.788Z,56.00
2023-05-23T21:55:54.846Z,56.00
2023-05-23T21:58:22.675Z,56.80
2023-05-23T22:00:50.784Z,56.30
2023-05-23T22:03:19.833Z,56.20
2023-05-23T22:05:49.688Z,56.50
2023-05-23T22:08:17.922Z,56.30
2023-05-23T22:10:48.595Z,56.70
2023-05-23T22:13:17.375Z,56.70
2023-05-23T22:15:45.185Z,56.90
2023-05-23T22:18:13.691Z,57.10
2023-05-23T22:20:41.700Z,57.10
2023-05-23T22:23:16.715Z,57.30
2023-05-23T22:25:45.005Z,57.60
2023-05-23T22:28:13.126Z,57.60
2023-05-23T22:30:41.247Z,57.80
2023-05-23T22:33:12.891Z,57.80
2023-05-23T22:35:41.361Z,58.00
2023-05-23T22:38:11.479Z,58.10
2023-05-23T22:40:39.650Z,58.40
2023-05-23T22:43:08.443Z,58.20
2023-05-23T22:45:40.599Z,58.70
2023-05-23T22:48:09.579Z,58.60
2023-05-23T22:50:40.394Z,58.80
2023-05-23T22:53:09.942Z,58.90
2023-05-23T22:55:38.055Z,59.10
2023-05-23T22:58:07.662Z,59.20
2023-05-23T23:00:35.530Z,59.30
2023-05-23T23:03:03.810Z,59.50
2023-05-23T23:05:31.838Z,59.70
2023-05-23T23:07:59.756Z,59.70
2023-05-23T23:10:28.943Z,59.90
2023-05-23T23:12:56.850Z,60.10
2023-05-23T23:15:24.879Z,60.10
2023-05-23T23:17:52.768Z,60.20
2023-05-23T23:20:22.530Z,60.60
2023-05-23T23:22:50.717Z,61.40
2023-05-23T23:25:18.939Z,60.60
2023-05-23T23:27:48.625Z,60.80
2023-05-23T23:30:17.143Z,61.20
2023-05-23T23:32:45.109Z,61.00
2023-05-23T23:35:13.295Z,61.40
2023-05-23T23:37:41.251Z,61.40
2023-05-23T23:40:10.304Z,61.60
2023-05-23T23:42:38.308Z,61.80
2023-05-23T23:45:08.634Z,61.80
2023-05-23T23:47:36.485Z,62.20
2023-05-23T23:50:04.449Z,62.00
2023-05-23T23:52:32.879Z,62.10
2023-05-23T23:55:01.331Z,62.10
2023-05-23T23:57:29.168Z,62.40
2023-05-23T23:59:57.035Z,62.60
